sensor_id;sensor_type;location;lat;lon;timestamp;P1;durP1;ratioP1;P2;durP2;ratioP2
59338;SDS011;45117;50.960;5.500;2023-03-01T00:02:13;123.32;;;35.47;;
59338;SDS011;45117;50.960;5.500;2023-03-01T00:04:40;112.72;;;30.90;;
59338;SDS011;45117;50.960;5.500;2023-03-01T00:07:08;108.10;;;30.55;;
59338;SDS011;45117;50.960;5.500;2023-03-01T00:09:35;93.00;;;27.98;;
59338;SDS011;45117;50.960;5.500;2023-03-01T00:12:02;50.90;;;18.80;;
59338;SDS011;45117;50.960;5.500;2023-03-01T00:14:29;57.17;;;19.55;;
59338;SDS011;45117;50.960;5.500;2023-03-01T00:16:55;48.15;;;16.15;;
59338;SDS011;45117;50.960;5.500;2023-03-01T00:19:22;42.70;;;15.43;;
59338;SDS011;45117;50.960;5.500;2023-03-01T00:21:48;38.35;;;14.73;;
59338;SDS011;45117;50.960;5.500;2023-03-01T00:24:16;49.75;;;17.48;;
59338;SDS011;45117;50.960;5.500;2023-03-01T00:26:43;38.90;;;14.75;;
59338;SDS011;45117;50.960;5.500;2023-03-01T00:29:10;42.40;;;16.30;;
59338;SDS011;45117;50.960;5.500;2023-03-01T00:31:36;49.08;;;16.05;;
59338;SDS011;45117;50.960;5.500;2023-03-01T00:34:04;44.83;;;17.88;;
59338;SDS011;45117;50.960;5.500;2023-03-01T00:36:31;43.25;;;14.68;;
59338;SDS011;45117;50.960;5.500;2023-03-01T00:39:00;34.67;;;13.60;;
59338;SDS011;45117;50.960;5.500;2023-03-01T00:41:29;33.60;;;11.98;;
59338;SDS011;45117;50.960;5.500;2023-03-01T00:43:56;24.27;;;10.85;;
59338;SDS011;45117;50.960;5.500;2023-03-01T00:46:23;17.83;;;9.50;;
59338;SDS011;45117;50.960;5.500;2023-03-01T00:48:51;19.25;;;9.07;;
59338;SDS011;45117;50.960;5.500;2023-03-01T00:51:19;18.08;;;8.70;;
59338;SDS011;45117;50.960;5.500;2023-03-01T00:53:51;15.32;;;8.50;;
59338;SDS011;45117;50.960;5.500;2023-03-01T00:56:18;15.93;;;8.88;;
59338;SDS011;45117;50.960;5.500;2023-03-01T00:58:46;17.67;;;8.40;;
59338;SDS011;45117;50.960;5.500;2023-03-01T01:01:14;19.70;;;9.35;;
59338;SDS011;45117;50.960;5.500;2023-03-01T01:03:43;16.00;;;9.25;;
59338;SDS011;45117;50.960;5.500;2023-03-01T01:06:15;20.17;;;9.32;;
59338;SDS011;45117;50.960;5.500;2023-03-01T01:08:42;22.65;;;10.10;;
59338;SDS011;45117;50.960;5.500;2023-03-01T01:11:09;18.80;;;8.90;;
59338;SDS011;45117;50.960;5.500;2023-03-01T01:13:36;18.42;;;9.85;;
59338;SDS011;45117;50.960;5.500;2023-03-01T01:16:04;19.67;;;9.05;;
59338;SDS011;45117;50.960;5.500;2023-03-01T01:18:32;18.88;;;9.45;;
59338;SDS011;45117;50.960;5.500;2023-03-01T01:21:02;19.50;;;8.43;;
59338;SDS011;45117;50.960;5.500;2023-03-01T01:23:29;14.65;;;8.43;;
59338;SDS011;45117;50.960;5.500;2023-03-01T01:25:56;13.93;;;8.40;;
59338;SDS011;45117;50.960;5.500;2023-03-01T01:28:22;11.98;;;7.63;;
59338;SDS011;45117;50.960;5.500;2023-03-01T01:30:49;16.67;;;8.50;;
59338;SDS011;45117;50.960;5.500;2023-03-01T01:33:17;15.05;;;7.72;;
59338;SDS011;45117;50.960;5.500;2023-03-01T01:35:44;13.15;;;8.07;;
59338;SDS011;45117;50.960;5.500;2023-03-01T01:38:11;14.52;;;8.20;;
59338;SDS011;45117;50.960;5.500;2023-03-01T01:40:42;14.13;;;7.93;;
59338;SDS011;45117;50.960;5.500;2023-03-01T01:43:11;15.55;;;8.18;;
59338;SDS011;45117;50.960;5.500;2023-03-01T01:45:42;18.52;;;8.95;;
59338;SDS011;45117;50.960;5.500;2023-03-01T01:48:10;16.75;;;8.63;;
59338;SDS011;45117;50.960;5.500;2023-03-01T01:50:41;15.25;;;8.95;;
59338;SDS011;45117;50.960;5.500;2023-03-01T01:53:10;13.77;;;8.27;;
59338;SDS011;45117;50.960;5.500;2023-03-01T01:55:39;16.98;;;8.68;;
59338;SDS011;45117;50.960;5.500;2023-03-01T01:58:09;14.70;;;8.48;;
59338;SDS011;45117;50.960;5.500;2023-03-01T02:00:37;17.20;;;8.88;;
59338;SDS011;45117;50.960;5.500;2023-03-01T02:03:07;13.35;;;8.10;;
59338;SDS011;45117;50.960;5.500;2023-03-01T02:05:37;19.17;;;9.10;;
59338;SDS011;45117;50.960;5.500;2023-03-01T02:08:11;14.52;;;8.55;;
59338;SDS011;45117;50.960;5.500;2023-03-01T02:10:39;16.40;;;8.30;;
59338;SDS011;45117;50.960;5.500;2023-03-01T02:13:07;16.95;;;8.43;;
59338;SDS011;45117;50.960;5.500;2023-03-01T02:15:34;15.18;;;7.93;;
59338;SDS011;45117;50.960;5.500;2023-03-01T02:18:02;13.85;;;8.40;;
59338;SDS011;45117;50.960;5.500;2023-03-01T02:20:32;17.80;;;9.07;;
59338;SDS011;45117;50.960;5.500;2023-03-01T02:23:01;17.20;;;8.35;;
59338;SDS011;45117;50.960;5.500;2023-03-01T02:25:31;19.48;;;8.90;;
59338;SDS011;45117;50.960;5.500;2023-03-01T02:28:04;15.30;;;8.80;;
59338;SDS011;45117;50.960;5.500;2023-03-01T02:30:38;14.32;;;8.35;;
59338;SDS011;45117;50.960;5.500;2023-03-01T02:33:26;14.38;;;8.55;;
59338;SDS011;45117;50.960;5.500;2023-03-01T02:35:52;15.27;;;8.75;;
59338;SDS011;45117;50.960;5.500;2023-03-01T02:38:20;13.95;;;8.10;;
59338;SDS011;45117;50.960;5.500;2023-03-01T02:40:48;19.63;;;9.05;;
59338;SDS011;45117;50.960;5.500;2023-03-01T02:43:16;12.68;;;8.60;;
59338;SDS011;45117;50.960;5.500;2023-03-01T02:45:49;17.63;;;9.02;;
59338;SDS011;45117;50.960;5.500;2023-03-01T02:48:16;13.40;;;8.27;;
59338;SDS011;45117;50.960;5.500;2023-03-01T02:50:46;18.70;;;9.40;;
59338;SDS011;45117;50.960;5.500;2023-03-01T02:53:21;16.77;;;9.20;;
59338;SDS011;45117;50.960;5.500;2023-03-01T02:55:54;18.73;;;9.25;;
59338;SDS011;45117;50.960;5.500;2023-03-01T02:58:21;14.88;;;9.05;;
59338;SDS011;45117;50.960;5.500;2023-03-01T03:00:49;17.70;;;9.38;;
59338;SDS011;45117;50.960;5.500;2023-03-01T03:03:16;14.85;;;8.95;;
59338;SDS011;45117;50.960;5.500;2023-03-01T03:05:45;16.60;;;9.60;;
59338;SDS011;45117;50.960;5.500;2023-03-01T03:08:12;15.23;;;8.50;;
59338;SDS011;45117;50.960;5.500;2023-03-01T03:10:41;20.40;;;9.52;;
59338;SDS011;45117;50.960;5.500;2023-03-01T03:13:09;16.80;;;8.98;;
59338;SDS011;45117;50.960;5.500;2023-03-01T03:15:37;15.15;;;9.68;;
59338;SDS011;45117;50.960;5.500;2023-03-01T03:18:07;16.70;;;9.15;;
59338;SDS011;45117;50.960;5.500;2023-03-01T03:20:38;16.60;;;9.57;;
59338;SDS011;45117;50.960;5.500;2023-03-01T03:23:06;16.60;;;9.90;;
59338;SDS011;45117;50.960;5.500;2023-03-01T03:25:33;22.13;;;9.73;;
59338;SDS011;45117;50.960;5.500;2023-03-01T03:28:02;19.17;;;10.00;;
59338;SDS011;45117;50.960;5.500;2023-03-01T03:30:35;19.95;;;10.40;;
59338;SDS011;45117;50.960;5.500;2023-03-01T03:33:04;23.98;;;11.65;;
59338;SDS011;45117;50.960;5.500;2023-03-01T03:35:33;24.98;;;12.18;;
59338;SDS011;45117;50.960;5.500;2023-03-01T03:38:05;25.33;;;11.65;;
59338;SDS011;45117;50.960;5.500;2023-03-01T03:40:41;22.67;;;11.52;;
59338;SDS011;45117;50.960;5.500;2023-03-01T03:43:10;20.55;;;9.80;;
59338;SDS011;45117;50.960;5.500;2023-03-01T03:45:37;18.23;;;9.98;;
59338;SDS011;45117;50.960;5.500;2023-03-01T03:48:06;20.83;;;11.15;;
59338;SDS011;45117;50.960;5.500;2023-03-01T03:50:34;20.58;;;10.13;;
59338;SDS011;45117;50.960;5.500;2023-03-01T03:53:02;14.73;;;9.10;;
59338;SDS011;45117;50.960;5.500;2023-03-01T03:55:29;19.85;;;10.55;;
59338;SDS011;45117;50.960;5.500;2023-03-01T03:57:59;17.27;;;10.07;;
59338;SDS011;45117;50.960;5.500;2023-03-01T04:00:32;19.20;;;10.05;;
59338;SDS011;45117;50.960;5.500;2023-03-01T04:02:59;16.60;;;9.38;;
59338;SDS011;45117;50.960;5.500;2023-03-01T04:05:27;16.45;;;9.60;;
59338;SDS011;45117;50.960;5.500;2023-03-01T04:07:54;18.42;;;10.05;;
59338;SDS011;45117;50.960;5.500;2023-03-01T04:10:32;18.98;;;10.70;;
59338;SDS011;45117;50.960;5.500;2023-03-01T04:13:01;19.77;;;10.05;;
59338;SDS011;45117;50.960;5.500;2023-03-01T04:15:30;18.45;;;10.30;;
59338;SDS011;45117;50.960;5.500;2023-03-01T04:17:58;16.67;;;9.77;;
59338;SDS011;45117;50.960;5.500;2023-03-01T04:20:26;18.85;;;10.65;;
59338;SDS011;45117;50.960;5.500;2023-03-01T04:23:00;17.17;;;9.48;;
59338;SDS011;45117;50.960;5.500;2023-03-01T04:25:35;17.15;;;9.50;;
59338;SDS011;45117;50.960;5.500;2023-03-01T04:28:09;19.75;;;10.32;;
59338;SDS011;45117;50.960;5.500;2023-03-01T04:30:36;15.90;;;9.30;;
59338;SDS011;45117;50.960;5.500;2023-03-01T04:33:04;20.70;;;10.35;;
59338;SDS011;45117;50.960;5.500;2023-03-01T04:35:33;19.00;;;9.85;;
59338;SDS011;45117;50.960;5.500;2023-03-01T04:38:01;19.27;;;10.27;;
59338;SDS011;45117;50.960;5.500;2023-03-01T04:40:28;22.33;;;10.45;;
59338;SDS011;45117;50.960;5.500;2023-03-01T04:42:58;20.65;;;10.70;;
59338;SDS011;45117;50.960;5.500;2023-03-01T04:45:25;18.50;;;9.68;;
59338;SDS011;45117;50.960;5.500;2023-03-01T04:47:53;19.05;;;10.82;;
59338;SDS011;45117;50.960;5.500;2023-03-01T04:50:27;17.17;;;9.75;;
59338;SDS011;45117;50.960;5.500;2023-03-01T04:52:55;20.73;;;10.63;;
59338;SDS011;45117;50.960;5.500;2023-03-01T04:55:24;20.77;;;10.52;;
59338;SDS011;45117;50.960;5.500;2023-03-01T04:57:52;20.15;;;11.02;;
59338;SDS011;45117;50.960;5.500;2023-03-01T05:00:19;23.05;;;10.75;;
59338;SDS011;45117;50.960;5.500;2023-03-01T05:02:49;16.58;;;10.23;;
59338;SDS011;45117;50.960;5.500;2023-03-01T05:05:22;20.50;;;10.77;;
59338;SDS011;45117;50.960;5.500;2023-03-01T05:07:52;19.88;;;11.07;;
59338;SDS011;45117;50.960;5.500;2023-03-01T05:10:25;20.50;;;11.07;;
59338;SDS011;45117;50.960;5.500;2023-03-01T05:12:53;21.17;;;10.63;;
59338;SDS011;45117;50.960;5.500;2023-03-01T05:15:22;18.67;;;10.30;;
59338;SDS011;45117;50.960;5.500;2023-03-01T05:17:50;21.77;;;10.48;;
59338;SDS011;45117;50.960;5.500;2023-03-01T05:20:17;18.58;;;10.60;;
59338;SDS011;45117;50.960;5.500;2023-03-01T05:22:47;21.75;;;11.18;;
59338;SDS011;45117;50.960;5.500;2023-03-01T05:25:15;22.15;;;11.18;;
59338;SDS011;45117;50.960;5.500;2023-03-01T05:27:42;19.63;;;10.50;;
59338;SDS011;45117;50.960;5.500;2023-03-01T05:30:10;20.92;;;11.05;;
59338;SDS011;45117;50.960;5.500;2023-03-01T05:32:44;17.65;;;9.95;;
59338;SDS011;45117;50.960;5.500;2023-03-01T05:35:11;19.48;;;9.95;;
59338;SDS011;45117;50.960;5.500;2023-03-01T05:37:42;19.90;;;10.20;;
59338;SDS011;45117;50.960;5.500;2023-03-01T05:40:11;18.92;;;10.52;;
59338;SDS011;45117;50.960;5.500;2023-03-01T05:42:43;20.20;;;10.98;;
59338;SDS011;45117;50.960;5.500;2023-03-01T05:45:11;21.67;;;10.80;;
59338;SDS011;45117;50.960;5.500;2023-03-01T05:47:38;19.20;;;10.65;;
59338;SDS011;45117;50.960;5.500;2023-03-01T05:50:10;21.08;;;10.77;;
59338;SDS011;45117;50.960;5.500;2023-03-01T05:52:44;18.45;;;10.63;;
59338;SDS011;45117;50.960;5.500;2023-03-01T05:55:15;18.48;;;10.13;;
59338;SDS011;45117;50.960;5.500;2023-03-01T05:57:44;20.20;;;11.13;;
59338;SDS011;45117;50.960;5.500;2023-03-01T06:00:11;19.38;;;10.00;;
59338;SDS011;45117;50.960;5.500;2023-03-01T06:02:40;21.75;;;11.52;;
59338;SDS011;45117;50.960;5.500;2023-03-01T06:05:07;20.80;;;11.18;;
59338;SDS011;45117;50.960;5.500;2023-03-01T06:07:35;19.02;;;11.18;;
59338;SDS011;45117;50.960;5.500;2023-03-01T06:10:02;18.30;;;9.57;;
59338;SDS011;45117;50.960;5.500;2023-03-01T06:12:30;18.08;;;10.63;;
59338;SDS011;45117;50.960;5.500;2023-03-01T06:14:59;22.58;;;11.38;;
59338;SDS011;45117;50.960;5.500;2023-03-01T06:17:26;20.02;;;11.07;;
59338;SDS011;45117;50.960;5.500;2023-03-01T06:19:55;25.98;;;11.38;;
59338;SDS011;45117;50.960;5.500;2023-03-01T06:22:22;20.60;;;11.80;;
59338;SDS011;45117;50.960;5.500;2023-03-01T06:24:48;17.98;;;10.55;;
59338;SDS011;45117;50.960;5.500;2023-03-01T06:27:15;18.75;;;10.77;;
59338;SDS011;45117;50.960;5.500;2023-03-01T06:29:42;19.58;;;11.05;;
59338;SDS011;45117;50.960;5.500;2023-03-01T06:32:10;19.73;;;10.85;;
59338;SDS011;45117;50.960;5.500;2023-03-01T06:34:37;22.02;;;11.60;;
59338;SDS011;45117;50.960;5.500;2023-03-01T06:37:04;21.08;;;11.30;;
59338;SDS011;45117;50.960;5.500;2023-03-01T06:39:32;17.88;;;9.90;;
59338;SDS011;45117;50.960;5.500;2023-03-01T06:41:58;22.83;;;11.55;;
59338;SDS011;45117;50.960;5.500;2023-03-01T06:44:25;18.33;;;10.40;;
59338;SDS011;45117;50.960;5.500;2023-03-01T06:46:52;20.02;;;11.15;;
59338;SDS011;45117;50.960;5.500;2023-03-01T06:49:20;19.60;;;10.88;;
59338;SDS011;45117;50.960;5.500;2023-03-01T06:51:47;21.00;;;11.05;;
59338;SDS011;45117;50.960;5.500;2023-03-01T06:54:14;20.35;;;11.40;;
59338;SDS011;45117;50.960;5.500;2023-03-01T06:56:40;19.67;;;11.00;;
59338;SDS011;45117;50.960;5.500;2023-03-01T06:59:07;21.27;;;11.32;;
59338;SDS011;45117;50.960;5.500;2023-03-01T07:01:33;19.70;;;11.15;;
59338;SDS011;45117;50.960;5.500;2023-03-01T07:04:00;20.95;;;10.63;;
59338;SDS011;45117;50.960;5.500;2023-03-01T07:06:28;21.88;;;10.40;;
59338;SDS011;45117;50.960;5.500;2023-03-01T07:08:54;19.77;;;10.30;;
59338;SDS011;45117;50.960;5.500;2023-03-01T07:11:21;25.48;;;11.05;;
59338;SDS011;45117;50.960;5.500;2023-03-01T07:13:48;24.75;;;11.93;;
59338;SDS011;45117;50.960;5.500;2023-03-01T07:16:15;21.38;;;12.07;;
59338;SDS011;45117;50.960;5.500;2023-03-01T07:18:41;20.77;;;10.88;;
59338;SDS011;45117;50.960;5.500;2023-03-01T07:21:08;20.17;;;11.50;;
59338;SDS011;45117;50.960;5.500;2023-03-01T07:23:38;18.95;;;11.50;;
59338;SDS011;45117;50.960;5.500;2023-03-01T07:26:05;18.85;;;9.45;;
59338;SDS011;45117;50.960;5.500;2023-03-01T07:28:31;21.77;;;10.95;;
59338;SDS011;45117;50.960;5.500;2023-03-01T07:31:01;19.42;;;10.85;;
59338;SDS011;45117;50.960;5.500;2023-03-01T07:33:28;15.93;;;9.80;;
59338;SDS011;45117;50.960;5.500;2023-03-01T07:35:58;14.35;;;8.38;;
59338;SDS011;45117;50.960;5.500;2023-03-01T07:38:29;18.98;;;10.00;;
59338;SDS011;45117;50.960;5.500;2023-03-01T07:40:58;16.15;;;9.70;;
59338;SDS011;45117;50.960;5.500;2023-03-01T07:43:26;20.63;;;9.88;;
59338;SDS011;45117;50.960;5.500;2023-03-01T07:45:52;16.88;;;10.07;;
59338;SDS011;45117;50.960;5.500;2023-03-01T07:48:19;15.30;;;9.30;;
59338;SDS011;45117;50.960;5.500;2023-03-01T07:50:45;17.67;;;8.90;;
59338;SDS011;45117;50.960;5.500;2023-03-01T07:53:12;15.13;;;9.35;;
59338;SDS011;45117;50.960;5.500;2023-03-01T07:55:38;16.02;;;9.35;;
59338;SDS011;45117;50.960;5.500;2023-03-01T07:58:06;14.57;;;8.77;;
59338;SDS011;45117;50.960;5.500;2023-03-01T08:00:33;15.95;;;9.23;;
59338;SDS011;45117;50.960;5.500;2023-03-01T08:02:59;15.30;;;8.65;;
59338;SDS011;45117;50.960;5.500;2023-03-01T08:05:26;15.48;;;8.95;;
59338;SDS011;45117;50.960;5.500;2023-03-01T08:07:53;15.18;;;8.90;;
59338;SDS011;45117;50.960;5.500;2023-03-01T08:10:20;15.93;;;9.45;;
59338;SDS011;45117;50.960;5.500;2023-03-01T08:12:46;17.30;;;9.85;;
59338;SDS011;45117;50.960;5.500;2023-03-01T08:15:14;18.63;;;9.10;;
59338;SDS011;45117;50.960;5.500;2023-03-01T08:17:41;17.75;;;9.73;;
59338;SDS011;45117;50.960;5.500;2023-03-01T08:20:08;13.18;;;8.68;;
59338;SDS011;45117;50.960;5.500;2023-03-01T08:22:37;13.77;;;8.30;;
59338;SDS011;45117;50.960;5.500;2023-03-01T08:25:04;15.43;;;9.18;;
59338;SDS011;45117;50.960;5.500;2023-03-01T08:27:31;17.00;;;9.68;;
59338;SDS011;45117;50.960;5.500;2023-03-01T08:29:57;18.38;;;8.68;;
59338;SDS011;45117;50.960;5.500;2023-03-01T08:32:25;14.82;;;8.35;;
59338;SDS011;45117;50.960;5.500;2023-03-01T08:34:52;13.60;;;9.20;;
59338;SDS011;45117;50.960;5.500;2023-03-01T08:37:18;15.88;;;8.90;;
59338;SDS011;45117;50.960;5.500;2023-03-01T08:39:45;14.65;;;9.20;;
59338;SDS011;45117;50.960;5.500;2023-03-01T08:42:12;14.75;;;9.32;;
59338;SDS011;45117;50.960;5.500;2023-03-01T08:44:39;14.20;;;8.80;;
59338;SDS011;45117;50.960;5.500;2023-03-01T08:47:05;18.63;;;9.75;;
59338;SDS011;45117;50.960;5.500;2023-03-01T08:49:33;16.88;;;9.68;;
59338;SDS011;45117;50.960;5.500;2023-03-01T08:52:01;16.42;;;8.65;;
59338;SDS011;45117;50.960;5.500;2023-03-01T08:54:28;15.18;;;9.23;;
59338;SDS011;45117;50.960;5.500;2023-03-01T08:56:55;16.15;;;9.65;;
59338;SDS011;45117;50.960;5.500;2023-03-01T08:59:24;16.70;;;9.57;;
59338;SDS011;45117;50.960;5.500;2023-03-01T09:01:51;19.63;;;10.27;;
59338;SDS011;45117;50.960;5.500;2023-03-01T09:04:18;17.08;;;10.20;;
59338;SDS011;45117;50.960;5.500;2023-03-01T09:06:46;15.77;;;9.40;;
59338;SDS011;45117;50.960;5.500;2023-03-01T09:09:14;15.65;;;9.75;;
59338;SDS011;45117;50.960;5.500;2023-03-01T09:11:42;16.90;;;9.20;;
59338;SDS011;45117;50.960;5.500;2023-03-01T09:14:10;14.73;;;8.98;;
59338;SDS011;45117;50.960;5.500;2023-03-01T09:16:37;19.50;;;9.15;;
59338;SDS011;45117;50.960;5.500;2023-03-01T09:19:04;17.88;;;10.55;;
59338;SDS011;45117;50.960;5.500;2023-03-01T09:21:31;14.88;;;9.00;;
59338;SDS011;45117;50.960;5.500;2023-03-01T09:23:59;19.13;;;8.90;;
59338;SDS011;45117;50.960;5.500;2023-03-01T09:26:25;16.63;;;9.93;;
59338;SDS011;45117;50.960;5.500;2023-03-01T09:28:53;20.58;;;10.80;;
59338;SDS011;45117;50.960;5.500;2023-03-01T09:31:22;16.58;;;10.10;;
59338;SDS011;45117;50.960;5.500;2023-03-01T09:33:51;20.45;;;9.55;;
59338;SDS011;45117;50.960;5.500;2023-03-01T09:36:19;16.23;;;9.88;;
59338;SDS011;45117;50.960;5.500;2023-03-01T09:38:47;16.50;;;9.75;;
59338;SDS011;45117;50.960;5.500;2023-03-01T09:41:21;17.35;;;10.32;;
59338;SDS011;45117;50.960;5.500;2023-03-01T09:43:56;18.08;;;10.02;;
59338;SDS011;45117;50.960;5.500;2023-03-01T09:46:26;17.33;;;10.60;;
59338;SDS011;45117;50.960;5.500;2023-03-01T09:48:55;15.80;;;9.88;;
59338;SDS011;45117;50.960;5.500;2023-03-01T09:51:25;17.58;;;10.40;;
59338;SDS011;45117;50.960;5.500;2023-03-01T09:53:56;17.20;;;8.73;;
59338;SDS011;45117;50.960;5.500;2023-03-01T09:56:27;20.83;;;10.38;;
59338;SDS011;45117;50.960;5.500;2023-03-01T09:58:58;20.70;;;10.43;;
59338;SDS011;45117;50.960;5.500;2023-03-01T10:01:35;16.33;;;9.98;;
59338;SDS011;45117;50.960;5.500;2023-03-01T10:04:12;16.65;;;9.80;;
59338;SDS011;45117;50.960;5.500;2023-03-01T10:07:04;17.60;;;9.73;;
59338;SDS011;45117;50.960;5.500;2023-03-01T10:09:39;16.45;;;10.90;;
59338;SDS011;45117;50.960;5.500;2023-03-01T10:12:09;20.15;;;10.93;;
59338;SDS011;45117;50.960;5.500;2023-03-01T10:14:39;19.75;;;10.80;;
59338;SDS011;45117;50.960;5.500;2023-03-01T10:17:12;19.48;;;10.48;;
59338;SDS011;45117;50.960;5.500;2023-03-01T10:19:50;18.08;;;10.20;;
59338;SDS011;45117;50.960;5.500;2023-03-01T10:22:17;16.23;;;10.05;;
59338;SDS011;45117;50.960;5.500;2023-03-01T10:24:46;19.77;;;10.68;;
59338;SDS011;45117;50.960;5.500;2023-03-01T10:27:16;20.63;;;10.73;;
59338;SDS011;45117;50.960;5.500;2023-03-01T10:29:47;18.63;;;10.35;;
59338;SDS011;45117;50.960;5.500;2023-03-01T10:32:17;16.25;;;9.75;;
59338;SDS011;45117;50.960;5.500;2023-03-01T10:34:44;16.90;;;10.13;;
59338;SDS011;45117;50.960;5.500;2023-03-01T10:37:11;17.17;;;10.18;;
59338;SDS011;45117;50.960;5.500;2023-03-01T10:39:54;18.13;;;10.93;;
59338;SDS011;45117;50.960;5.500;2023-03-01T10:42:26;18.90;;;10.30;;
59338;SDS011;45117;50.960;5.500;2023-03-01T10:44:55;20.73;;;10.35;;
59338;SDS011;45117;50.960;5.500;2023-03-01T10:47:23;15.85;;;9.20;;
59338;SDS011;45117;50.960;5.500;2023-03-01T10:49:51;17.05;;;10.10;;
59338;SDS011;45117;50.960;5.500;2023-03-01T10:52:20;18.23;;;11.25;;
59338;SDS011;45117;50.960;5.500;2023-03-01T10:54:52;18.63;;;10.43;;
59338;SDS011;45117;50.960;5.500;2023-03-01T10:57:32;20.00;;;11.07;;
59338;SDS011;45117;50.960;5.500;2023-03-01T11:00:16;22.50;;;11.35;;
59338;SDS011;45117;50.960;5.500;2023-03-01T11:02:46;18.08;;;10.23;;
59338;SDS011;45117;50.960;5.500;2023-03-01T11:05:22;18.20;;;9.75;;
59338;SDS011;45117;50.960;5.500;2023-03-01T11:07:51;15.68;;;9.05;;
59338;SDS011;45117;50.960;5.500;2023-03-01T11:10:19;18.10;;;10.40;;
59338;SDS011;45117;50.960;5.500;2023-03-01T11:12:51;17.77;;;9.82;;
59338;SDS011;45117;50.960;5.500;2023-03-01T11:15:23;16.90;;;9.13;;
59338;SDS011;45117;50.960;5.500;2023-03-01T11:17:51;18.40;;;11.25;;
59338;SDS011;45117;50.960;5.500;2023-03-01T11:20:20;18.00;;;10.65;;
59338;SDS011;45117;50.960;5.500;2023-03-01T11:22:52;18.55;;;10.75;;
59338;SDS011;45117;50.960;5.500;2023-03-01T11:25:21;15.43;;;8.30;;
59338;SDS011;45117;50.960;5.500;2023-03-01T11:27:53;21.08;;;9.75;;
59338;SDS011;45117;50.960;5.500;2023-03-01T11:30:21;17.27;;;10.15;;
59338;SDS011;45117;50.960;5.500;2023-03-01T11:32:53;19.38;;;10.40;;
59338;SDS011;45117;50.960;5.500;2023-03-01T11:35:27;16.58;;;10.77;;
59338;SDS011;45117;50.960;5.500;2023-03-01T11:37:59;19.92;;;10.95;;
59338;SDS011;45117;50.960;5.500;2023-03-01T11:40:33;18.48;;;10.25;;
59338;SDS011;45117;50.960;5.500;2023-03-01T11:43:09;18.55;;;10.27;;
59338;SDS011;45117;50.960;5.500;2023-03-01T11:45:43;17.60;;;10.85;;
59338;SDS011;45117;50.960;5.500;2023-03-01T11:48:29;20.60;;;10.88;;
59338;SDS011;45117;50.960;5.500;2023-03-01T11:51:08;18.95;;;10.95;;
59338;SDS011;45117;50.960;5.500;2023-03-01T11:53:46;20.60;;;11.55;;
59338;SDS011;45117;50.960;5.500;2023-03-01T11:56:23;17.98;;;10.82;;
59338;SDS011;45117;50.960;5.500;2023-03-01T11:59:13;17.00;;;10.65;;
59338;SDS011;45117;50.960;5.500;2023-03-01T12:01:51;17.85;;;10.38;;
59338;SDS011;45117;50.960;5.500;2023-03-01T12:04:32;18.33;;;10.80;;
59338;SDS011;45117;50.960;5.500;2023-03-01T12:07:17;17.45;;;10.13;;
59338;SDS011;45117;50.960;5.500;2023-03-01T12:10:02;16.00;;;8.55;;
59338;SDS011;45117;50.960;5.500;2023-03-01T12:12:47;16.05;;;9.65;;
59338;SDS011;45117;50.960;5.500;2023-03-01T12:15:29;15.07;;;9.23;;
59338;SDS011;45117;50.960;5.500;2023-03-01T12:21:10;20.42;;;11.68;;
59338;SDS011;45117;50.960;5.500;2023-03-01T12:23:56;16.75;;;10.23;;
59338;SDS011;45117;50.960;5.500;2023-03-01T12:26:40;16.83;;;9.52;;
59338;SDS011;45117;50.960;5.500;2023-03-01T12:29:25;16.60;;;10.50;;
59338;SDS011;45117;50.960;5.500;2023-03-01T12:34:54;16.02;;;9.10;;
59338;SDS011;45117;50.960;5.500;2023-03-01T12:37:32;14.90;;;9.23;;
59338;SDS011;45117;50.960;5.500;2023-03-01T12:40:16;14.27;;;8.73;;
59338;SDS011;45117;50.960;5.500;2023-03-01T12:42:56;15.93;;;9.73;;
59338;SDS011;45117;50.960;5.500;2023-03-01T12:45:34;17.13;;;9.98;;
59338;SDS011;45117;50.960;5.500;2023-03-01T12:48:34;19.58;;;10.40;;
59338;SDS011;45117;50.960;5.500;2023-03-01T12:51:10;16.02;;;8.75;;
59338;SDS011;45117;50.960;5.500;2023-03-01T12:53:40;18.55;;;10.38;;
59338;SDS011;45117;50.960;5.500;2023-03-01T12:56:10;15.18;;;9.65;;
59338;SDS011;45117;50.960;5.500;2023-03-01T12:58:40;16.13;;;9.05;;
59338;SDS011;45117;50.960;5.500;2023-03-01T13:01:15;16.58;;;9.65;;
59338;SDS011;45117;50.960;5.500;2023-03-01T13:04:02;14.57;;;8.80;;
59338;SDS011;45117;50.960;5.500;2023-03-01T13:06:40;17.23;;;8.60;;
59338;SDS011;45117;50.960;5.500;2023-03-01T13:09:13;15.70;;;9.00;;
59338;SDS011;45117;50.960;5.500;2023-03-01T13:11:46;15.82;;;9.38;;
59338;SDS011;45117;50.960;5.500;2023-03-01T13:17:40;15.63;;;8.63;;
59338;SDS011;45117;50.960;5.500;2023-03-01T13:22:43;14.93;;;8.88;;
59338;SDS011;45117;50.960;5.500;2023-03-01T13:25:13;17.75;;;9.27;;
59338;SDS011;45117;50.960;5.500;2023-03-01T13:27:42;15.65;;;8.80;;
59338;SDS011;45117;50.960;5.500;2023-03-01T13:36:09;14.73;;;7.93;;
59338;SDS011;45117;50.960;5.500;2023-03-01T13:38:45;12.88;;;7.68;;
59338;SDS011;45117;50.960;5.500;2023-03-01T13:41:13;15.75;;;8.55;;
59338;SDS011;45117;50.960;5.500;2023-03-01T13:43:40;18.35;;;9.52;;
59338;SDS011;45117;50.960;5.500;2023-03-01T13:46:09;15.63;;;8.77;;
59338;SDS011;45117;50.960;5.500;2023-03-01T13:48:40;15.13;;;9.90;;
59338;SDS011;45117;50.960;5.500;2023-03-01T13:51:07;17.65;;;10.27;;
59338;SDS011;45117;50.960;5.500;2023-03-01T13:53:39;15.93;;;9.23;;
59338;SDS011;45117;50.960;5.500;2023-03-01T13:56:11;14.65;;;8.80;;
59338;SDS011;45117;50.960;5.500;2023-03-01T13:58:50;16.58;;;9.45;;
59338;SDS011;45117;50.960;5.500;2023-03-01T14:01:23;18.55;;;10.30;;
59338;SDS011;45117;50.960;5.500;2023-03-01T14:03:52;15.98;;;9.25;;
59338;SDS011;45117;50.960;5.500;2023-03-01T14:06:21;15.48;;;9.05;;
59338;SDS011;45117;50.960;5.500;2023-03-01T14:08:49;15.43;;;9.02;;
59338;SDS011;45117;50.960;5.500;2023-03-01T14:11:28;17.10;;;9.20;;
59338;SDS011;45117;50.960;5.500;2023-03-01T14:14:24;15.02;;;9.23;;
59338;SDS011;45117;50.960;5.500;2023-03-01T14:17:04;16.05;;;9.05;;
59338;SDS011;45117;50.960;5.500;2023-03-01T14:19:39;15.90;;;8.57;;
59338;SDS011;45117;50.960;5.500;2023-03-01T14:22:14;14.25;;;8.70;;
59338;SDS011;45117;50.960;5.500;2023-03-01T14:24:47;12.52;;;7.90;;
59338;SDS011;45117;50.960;5.500;2023-03-01T14:27:15;15.75;;;7.95;;
59338;SDS011;45117;50.960;5.500;2023-03-01T14:29:43;14.70;;;7.80;;
59338;SDS011;45117;50.960;5.500;2023-03-01T14:32:20;12.45;;;6.88;;
59338;SDS011;45117;50.960;5.500;2023-03-01T14:34:48;11.27;;;7.03;;
59338;SDS011;45117;50.960;5.500;2023-03-01T14:37:20;15.98;;;8.00;;
59338;SDS011;45117;50.960;5.500;2023-03-01T14:39:48;13.02;;;7.60;;
59338;SDS011;45117;50.960;5.500;2023-03-01T14:42:15;14.38;;;7.45;;
59338;SDS011;45117;50.960;5.500;2023-03-01T14:44:43;13.70;;;7.22;;
59338;SDS011;45117;50.960;5.500;2023-03-01T14:47:12;14.13;;;7.72;;
59338;SDS011;45117;50.960;5.500;2023-03-01T14:49:41;11.65;;;6.85;;
59338;SDS011;45117;50.960;5.500;2023-03-01T14:52:17;14.10;;;7.10;;
59338;SDS011;45117;50.960;5.500;2023-03-01T14:54:48;12.77;;;6.95;;
59338;SDS011;45117;50.960;5.500;2023-03-01T14:57:18;13.07;;;7.53;;
59338;SDS011;45117;50.960;5.500;2023-03-01T14:59:46;12.60;;;7.60;;
59338;SDS011;45117;50.960;5.500;2023-03-01T15:02:16;11.85;;;7.20;;
59338;SDS011;45117;50.960;5.500;2023-03-01T15:04:45;16.65;;;7.13;;